Strona główna
METAR-TAF:

METAR-TAF

Lotnisko :

Bejrut, Liban

Szerokość geograficzna: 33-49N, Długość geograficzna: 035-29E, wysokość: 29 m

METAR: brakujący

czas: 04:24 (01:24 UTC)

Prognoza

Raport powstał 3 godziny i 24 minut temu, godzina 22:00 UTC
Prognoza ważna od 26 godzina 00 UTC do 27 godzina 06 UTC
Wiatr 5 kt z kierunków zmiennych
Widzialność: 5000 m
Przerywane chmury na wysokości 2600 ft
zamglenie
Stopniowe zmiany
od 26 godzina 09 UTC do 26 godzina 12 UTC
Wiatr 10 kt od zachodnio-południowy zachód w porywach dochodzący do 20 kt
Widzialność: 7000 m
Rozproszone chmury na wysokości 2600 ft
Stopniowe zmiany
od 26 godzina 21 UTC do 26 godzina 24 UTC
Wiatr 5 kt z kierunków zmiennych
Mało chmury na wysokości 2400 ft

TAF: OLBA 252200Z 2600/2706 VRB05KT 5000 BR BKN026 BECMG 2609/2612 25010G20KT 7000 SCT026 BECMG 2621/2624 VRB05KT FEW024

Obserwacja i prognoza pogody dla ponad 4000 lotnisk (raport METAR i TAF).

Dostępne stacje oznaczono żółtymi i czerwonymi punktami na mapie.

Najedź kursorem aby zobaczyć nazwę stacji.

Kliknij aby zobaczyć obserwacje i prognozy pogody.

Aby zmienić mapę: kliknij na zielony przycisk z czarnym krzyżykiem, aby powiększyć; na zielony przycisk z myślnikiem, aby pomniejszyć; na zielone strzałki, aby przejść do map sąsiednich.


METAR-TAF: